createdAt,value
2023-11-15T00:01:07.072Z,100.00
2023-11-15T00:03:33.832Z,100.00
2023-11-15T00:06:00.689Z,100.00
2023-11-15T00:08:27.350Z,100.00
2023-11-15T00:10:53.928Z,100.00
2023-11-15T00:13:20.414Z,100.00
2023-11-15T00:15:47.013Z,100.00
2023-11-15T00:18:14.937Z,100.00
2023-11-15T00:20:41.980Z,100.00
2023-11-15T00:23:10.090Z,100.00
2023-11-15T00:25:36.725Z,100.00
2023-11-15T00:28:04.590Z,100.00
2023-11-15T00:30:31.150Z,100.00
2023-11-15T00:32:57.709Z,100.00
2023-11-15T00:35:24.515Z,100.00
2023-11-15T00:37:51.018Z,100.00
2023-11-15T00:40:17.590Z,100.00
2023-11-15T00:42:45.254Z,100.00
2023-11-15T00:45:13.318Z,100.00
2023-11-15T00:47:40.573Z,100.00
2023-11-15T00:50:08.264Z,100.00
2023-11-15T00:52:34.920Z,100.00
2023-11-15T00:55:01.437Z,100.00
2023-11-15T00:57:28.786Z,100.00
2023-11-15T00:59:55.575Z,100.00
2023-11-15T01:02:22.805Z,100.00
2023-11-15T01:04:51.736Z,100.00
2023-11-15T01:07:19.252Z,100.00
2023-11-15T01:09:45.733Z,100.00
2023-11-15T01:12:12.663Z,100.00
2023-11-15T01:14:39.143Z,100.00
2023-11-15T01:17:06.103Z,100.00
2023-11-15T01:19:32.684Z,100.00
2023-11-15T01:21:59.344Z,100.00
2023-11-15T01:24:26.745Z,100.00
2023-11-15T01:26:53.914Z,100.00
2023-11-15T01:29:20.527Z,100.00
2023-11-15T01:31:47.023Z,100.00
2023-11-15T01:34:15.830Z,100.00
2023-11-15T01:36:42.314Z,100.00
2023-11-15T01:39:17.029Z,100.00
2023-11-15T01:41:50.883Z,100.00
2023-11-15T01:44:19.307Z,100.00
2023-11-15T01:46:49.306Z,100.00
2023-11-15T01:49:21.483Z,100.00
2023-11-15T01:51:50.114Z,100.00
2023-11-15T01:54:19.694Z,100.00
2023-11-15T01:56:46.285Z,100.00
2023-11-15T01:59:14.544Z,100.00
2023-11-15T02:01:41.849Z,100.00
2023-11-15T02:04:09.359Z,100.00
2023-11-15T02:06:38.134Z,100.00
2023-11-15T02:09:08.358Z,100.00
2023-11-15T02:11:34.930Z,100.00
2023-11-15T02:14:01.412Z,100.00
2023-11-15T02:16:28.448Z,100.00
2023-11-15T02:18:54.900Z,100.00
2023-11-15T02:21:21.320Z,100.00
2023-11-15T02:23:48.080Z,100.00
2023-11-15T02:26:14.721Z,100.00
2023-11-15T02:28:41.140Z,100.00
2023-11-15T02:31:10.585Z,100.00
2023-11-15T02:33:37.338Z,100.00
2023-11-15T02:36:04.428Z,100.00
2023-11-15T02:38:30.813Z,100.00
2023-11-15T02:40:57.273Z,100.00
2023-11-15T02:43:23.797Z,100.00
2023-11-15T02:45:50.379Z,100.00
2023-11-15T02:48:16.907Z,100.00
2023-11-15T02:50:43.703Z,100.00
2023-11-15T02:53:10.266Z,100.00
2023-11-15T02:55:36.746Z,100.00
2023-11-15T02:58:04.471Z,100.00
2023-11-15T03:00:31.754Z,100.00
2023-11-15T03:02:58.657Z,100.00
2023-11-15T03:05:25.506Z,100.00
2023-11-15T03:07:53.467Z,100.00
2023-11-15T03:10:19.955Z,100.00
2023-11-15T03:12:47.096Z,100.00
2023-11-15T03:15:14.255Z,100.00
2023-11-15T03:17:41.516Z,100.00
2023-11-15T03:20:10.192Z,100.00
2023-11-15T03:22:36.814Z,100.00
2023-11-15T03:25:03.448Z,100.00
2023-11-15T03:27:29.876Z,100.00
2023-11-15T03:29:56.458Z,100.00
2023-11-15T03:32:24.087Z,100.00
2023-11-15T03:34:51.073Z,100.00
2023-11-15T03:37:17.507Z,100.00
2023-11-15T03:39:45.659Z,100.00
2023-11-15T03:42:13.204Z,100.00
2023-11-15T03:44:39.789Z,100.00
2023-11-15T03:47:06.367Z,100.00
2023-11-15T03:49:32.918Z,100.00
2023-11-15T03:51:59.414Z,100.00
2023-11-15T03:54:25.868Z,100.00
2023-11-15T03:56:52.299Z,100.00
2023-11-15T03:59:20.246Z,100.00
2023-11-15T04:01:55.105Z,100.00
2023-11-15T04:04:25.206Z,100.00
2023-11-15T04:06:52.264Z,100.00
2023-11-15T04:09:18.783Z,100.00
2023-11-15T04:11:45.677Z,100.00
2023-11-15T04:14:13.251Z,100.00
2023-11-15T04:16:39.858Z,100.00
2023-11-15T04:19:06.435Z,100.00
2023-11-15T04:21:33.002Z,100.00
2023-11-15T04:24:00.066Z,100.00
2023-11-15T04:26:27.059Z,100.00
2023-11-15T04:28:54.310Z,100.00
2023-11-15T04:31:22.142Z,100.00
2023-11-15T04:33:49.908Z,100.00
2023-11-15T04:36:20.397Z,100.00
2023-11-15T04:38:48.663Z,100.00
2023-11-15T04:41:15.877Z,100.00
2023-11-15T04:43:42.339Z,100.00
2023-11-15T04:46:09.568Z,100.00
2023-11-15T04:48:36.628Z,100.00
2023-11-15T04:51:03.778Z,100.00
2023-11-15T04:53:30.551Z,100.00
2023-11-15T04:55:57.172Z,100.00
2023-11-15T04:58:23.585Z,100.00
2023-11-15T05:00:50.046Z,100.00
2023-11-15T05:03:16.701Z,100.00
2023-11-15T05:05:46.708Z,100.00
2023-11-15T05:08:13.492Z,100.00
2023-11-15T05:10:40.034Z,100.00
2023-11-15T05:13:06.543Z,100.00
2023-11-15T05:15:33.440Z,100.00
2023-11-15T05:18:01.210Z,100.00
2023-11-15T05:20:27.966Z,100.00
2023-11-15T05:22:57.498Z,100.00
2023-11-15T05:25:24.665Z,100.00
2023-11-15T05:27:51.219Z,100.00
2023-11-15T05:30:17.798Z,100.00
2023-11-15T05:32:45.065Z,100.00
2023-11-15T05:35:11.745Z,100.00
2023-11-15T05:37:39.430Z,100.00
2023-11-15T05:40:07.508Z,100.00
2023-11-15T05:42:34.504Z,100.00
2023-11-15T05:45:01.261Z,100.00
2023-11-15T05:47:28.722Z,100.00
2023-11-15T05:49:55.551Z,100.00
2023-11-15T05:52:22.818Z,100.00
2023-11-15T05:54:49.301Z,100.00
2023-11-15T05:57:15.870Z,100.00
2023-11-15T05:59:42.565Z,100.00
2023-11-15T06:02:09.280Z,100.00
2023-11-15T06:04:36.183Z,100.00
2023-11-15T06:07:02.746Z,100.00
2023-11-15T06:09:29.915Z,100.00
2023-11-15T06:11:56.471Z,100.00
2023-11-15T06:14:22.956Z,100.00
2023-11-15T06:16:49.543Z,100.00
2023-11-15T06:19:15.949Z,100.00
2023-11-15T06:21:43.640Z,100.00
2023-11-15T06:24:10.369Z,100.00
2023-11-15T06:26:38.387Z,100.00
2023-11-15T06:29:06.435Z,100.00
2023-11-15T06:31:34.151Z,100.00
2023-11-15T06:34:00.812Z,100.00
2023-11-15T06:36:27.357Z,100.00
2023-11-15T06:38:53.814Z,100.00
2023-11-15T06:41:20.298Z,100.00
2023-11-15T06:43:46.785Z,100.00
2023-11-15T06:46:18.652Z,100.00
2023-11-15T06:48:45.454Z,100.00
2023-11-15T06:51:12.081Z,100.00
2023-11-15T06:53:39.440Z,100.00
2023-11-15T06:56:08.648Z,100.00
2023-11-15T06:58:37.572Z,100.00
2023-11-15T07:01:08.012Z,100.00
2023-11-15T07:03:34.576Z,100.00
2023-11-15T07:06:01.187Z,100.00
2023-11-15T07:08:27.705Z,100.00
2023-11-15T07:10:56.201Z,100.00
2023-11-15T07:13:23.269Z,100.00
2023-11-15T07:15:51.264Z,100.00
2023-11-15T07:18:18.460Z,100.00
2023-11-15T07:20:45.838Z,100.00
2023-11-15T07:23:13.080Z,100.00
2023-11-15T07:25:39.771Z,100.00
2023-11-15T07:28:09.382Z,100.00
2023-11-15T07:30:35.939Z,100.00
2023-11-15T07:33:02.534Z,100.00
2023-11-15T07:35:29.164Z,100.00
2023-11-15T07:37:55.782Z,100.00
2023-11-15T07:40:23.746Z,100.00
2023-11-15T07:42:50.887Z,100.00
2023-11-15T07:45:20.298Z,100.00
2023-11-15T07:47:49.730Z,100.00
2023-11-15T07:50:17.161Z,100.00
2023-11-15T07:52:44.444Z,100.00
2023-11-15T07:55:11.759Z,100.00
2023-11-15T07:57:38.350Z,100.00
2023-11-15T08:00:06.004Z,100.00
2023-11-15T08:02:32.674Z,100.00
2023-11-15T08:04:59.419Z,100.00
2023-11-15T08:07:25.843Z,100.00
2023-11-15T08:09:52.299Z,100.00
2023-11-15T08:12:18.748Z,100.00
2023-11-15T08:14:45.270Z,100.00
2023-11-15T08:17:12.674Z,100.00
2023-11-15T08:19:39.269Z,100.00
2023-11-15T08:22:06.890Z,100.00
2023-11-15T08:24:35.613Z,100.00
2023-11-15T08:27:02.222Z,100.00
2023-11-15T08:29:28.719Z,100.00
2023-11-15T08:31:55.498Z,100.00
2023-11-15T08:34:24.052Z,100.00
2023-11-15T08:36:51.680Z,100.00
2023-11-15T08:39:18.381Z,100.00
2023-11-15T08:41:47.507Z,100.00
2023-11-15T08:44:14.582Z,100.00
2023-11-15T08:46:43.612Z,100.00
2023-11-15T08:49:17.242Z,100.00
2023-11-15T08:51:46.316Z,100.00
2023-11-15T08:54:13.260Z,100.00
2023-11-15T08:56:42.441Z,100.00
2023-11-15T08:59:15.448Z,100.00
2023-11-15T09:01:42.957Z,100.00
2023-11-15T09:04:09.834Z,100.00
2023-11-15T09:06:36.381Z,100.00
2023-11-15T09:09:05.324Z,100.00
2023-11-15T09:11:32.823Z,100.00
2023-11-15T09:14:00.004Z,100.00
2023-11-15T09:16:26.919Z,100.00
2023-11-15T09:18:56.043Z,100.00
2023-11-15T09:21:23.750Z,100.00
2023-11-15T09:23:50.213Z,100.00
2023-11-15T09:26:20.157Z,100.00
2023-11-15T09:28:48.040Z,100.00
2023-11-15T09:31:14.919Z,100.00
2023-11-15T09:33:41.658Z,100.00
2023-11-15T09:36:12.377Z,100.00
2023-11-15T09:38:40.919Z,100.00
2023-11-15T09:41:13.113Z,100.00
2023-11-15T09:43:45.469Z,100.00
2023-11-15T09:46:13.953Z,100.00
2023-11-15T09:48:53.092Z,100.00
2023-11-15T09:51:33.546Z,100.00
2023-11-15T09:54:12.339Z,100.00
2023-11-15T09:56:45.690Z,100.00
2023-11-15T09:59:12.225Z,100.00
2023-11-15T10:01:44.806Z,100.00
2023-11-15T10:04:28.950Z,100.00
2023-11-15T10:07:05.160Z,100.00
2023-11-15T10:09:39.559Z,100.00
2023-11-15T10:12:07.448Z,100.00
2023-11-15T10:14:38.110Z,100.00
2023-11-15T10:17:07.417Z,100.00
2023-11-15T10:19:35.526Z,100.00
2023-11-15T10:22:06.552Z,100.00
2023-11-15T10:24:35.685Z,100.00
2023-11-15T10:27:12.417Z,100.00
2023-11-15T10:29:40.128Z,100.00
2023-11-15T10:32:07.658Z,97.15
2023-11-15T10:34:36.225Z,97.23
2023-11-15T10:37:12.825Z,96.58
2023-11-15T10:39:45.011Z,95.87
2023-11-15T10:42:13.671Z,93.79
2023-11-15T10:44:42.186Z,95.22
2023-11-15T10:47:09.327Z,94.02
2023-11-15T10:49:51.938Z,95.61
2023-11-15T10:52:19.226Z,95.32
2023-11-15T10:54:45.898Z,93.19
2023-11-15T10:57:12.733Z,94.78
2023-11-15T10:59:42.284Z,95.11
2023-11-15T11:02:11.000Z,95.16
2023-11-15T11:04:40.116Z,93.94
2023-11-15T11:07:42.743Z,94.40
2023-11-15T11:10:24.970Z,93.96
2023-11-15T11:12:51.443Z,94.35
2023-11-15T11:15:21.411Z,94.92
2023-11-15T11:17:49.838Z,94.27
2023-11-15T11:20:30.025Z,91.98
2023-11-15T11:23:11.618Z,92.71
2023-11-15T11:25:41.962Z,92.47
2023-11-15T11:28:13.325Z,91.69
2023-11-15T11:30:39.875Z,92.48
2023-11-15T11:33:19.889Z,92.50
2023-11-15T11:35:48.063Z,92.53
2023-11-15T11:38:39.596Z,93.17
2023-11-15T11:41:06.291Z,93.61
2023-11-15T11:43:33.813Z,93.94
2023-11-15T11:46:14.651Z,94.01
2023-11-15T11:48:41.413Z,95.22
2023-11-15T11:51:09.124Z,95.27
2023-11-15T11:53:39.867Z,93.69
2023-11-15T11:56:08.578Z,93.85
2023-11-15T11:58:37.735Z,93.75
2023-11-15T12:01:06.340Z,93.84
2023-11-15T12:03:36.658Z,93.64
2023-11-15T12:06:09.124Z,93.43
2023-11-15T12:08:47.563Z,93.65
2023-11-15T12:11:18.390Z,93.38
2023-11-15T12:13:50.249Z,93.57
2023-11-15T12:16:25.016Z,93.33
2023-11-15T12:18:58.982Z,94.02
2023-11-15T12:21:26.151Z,94.02
2023-11-15T12:23:53.507Z,94.37
2023-11-15T12:26:20.166Z,93.40
2023-11-15T12:28:47.492Z,93.39
2023-11-15T12:31:15.530Z,92.71
2023-11-15T12:33:43.995Z,92.82
2023-11-15T12:36:12.678Z,91.00
2023-11-15T12:38:56.628Z,90.27
2023-11-15T12:41:23.819Z,89.97
2023-11-15T12:44:03.816Z,90.53
2023-11-15T12:46:30.586Z,90.42
2023-11-15T12:48:57.159Z,90.95
2023-11-15T12:51:23.920Z,91.25
2023-11-15T12:53:50.561Z,90.13
2023-11-15T12:56:18.739Z,88.41
2023-11-15T12:58:46.164Z,89.71
2023-11-15T13:01:18.173Z,89.89
2023-11-15T13:03:45.835Z,89.95
2023-11-15T13:06:17.321Z,91.28
2023-11-15T13:08:45.895Z,92.07
2023-11-15T13:11:14.665Z,92.19
2023-11-15T13:13:42.823Z,92.51
2023-11-15T13:16:10.377Z,92.65
2023-11-15T13:18:38.354Z,92.38
2023-11-15T13:21:07.933Z,92.45
2023-11-15T13:23:41.349Z,91.92
2023-11-15T13:26:11.620Z,91.99
2023-11-15T13:28:40.607Z,91.85
2023-11-15T13:31:11.514Z,91.31
2023-11-15T13:33:39.731Z,91.59
2023-11-15T13:36:08.162Z,91.69
2023-11-15T13:38:35.299Z,90.59
2023-11-15T13:41:08.315Z,90.74
2023-11-15T13:43:35.444Z,90.16
2023-11-15T13:46:01.995Z,89.53
2023-11-15T13:48:28.582Z,89.10
2023-11-15T13:50:55.592Z,88.62
2023-11-15T13:53:22.043Z,88.51
2023-11-15T13:55:49.025Z,88.06
2023-11-15T13:58:16.504Z,87.91
2023-11-15T14:00:42.960Z,87.47
2023-11-15T14:03:10.580Z,87.47
2023-11-15T14:05:41.958Z,87.42
2023-11-15T14:08:11.914Z,87.35
2023-11-15T14:10:40.526Z,86.03
2023-11-15T14:13:07.602Z,87.11
2023-11-15T14:15:35.372Z,87.19
2023-11-15T14:18:05.066Z,87.58
2023-11-15T14:20:32.536Z,87.64
2023-11-15T14:22:59.607Z,87.67
2023-11-15T14:25:32.921Z,87.64
2023-11-15T14:28:03.178Z,87.83
2023-11-15T14:30:30.140Z,87.69
2023-11-15T14:32:57.520Z,87.96
2023-11-15T14:35:26.491Z,88.15
2023-11-15T14:37:53.817Z,88.27
2023-11-15T14:40:24.498Z,88.69
2023-11-15T14:42:53.342Z,88.71
2023-11-15T14:45:20.960Z,89.23
2023-11-15T14:47:47.949Z,89.49
2023-11-15T14:50:16.333Z,89.74
2023-11-15T14:53:10.021Z,89.82
2023-11-15T14:55:36.760Z,90.06
2023-11-15T14:58:04.567Z,90.23
2023-11-15T15:00:31.012Z,90.58
2023-11-15T15:03:02.340Z,90.94
2023-11-15T15:05:29.133Z,90.41
2023-11-15T15:07:55.977Z,90.37
2023-11-15T15:10:22.551Z,89.77
2023-11-15T15:12:49.398Z,89.61
2023-11-15T15:15:19.087Z,90.00
2023-11-15T15:17:46.943Z,90.03
2023-11-15T15:20:17.680Z,90.30
2023-11-15T15:22:44.315Z,90.33
2023-11-15T15:25:12.885Z,90.40
2023-11-15T15:27:40.123Z,90.56
2023-11-15T15:30:10.484Z,91.14
2023-11-15T15:32:36.929Z,91.24
2023-11-15T15:35:03.573Z,90.58
2023-11-15T15:37:30.036Z,91.01
2023-11-15T15:39:57.419Z,91.34
2023-11-15T15:42:25.448Z,91.50
2023-11-15T15:44:53.350Z,91.30
2023-11-15T15:47:19.903Z,91.46
2023-11-15T15:49:46.889Z,91.08
2023-11-15T15:52:14.531Z,90.92
2023-11-15T15:54:44.806Z,91.25
2023-11-15T15:57:11.595Z,91.49
2023-11-15T15:59:43.344Z,91.77
2023-11-15T16:02:10.436Z,91.51
2023-11-15T16:04:42.138Z,91.98
2023-11-15T16:07:09.092Z,92.32
2023-11-15T16:09:35.498Z,92.75
2023-11-15T16:12:01.894Z,93.06
2023-11-15T16:14:28.304Z,93.66
2023-11-15T16:16:54.732Z,94.23
2023-11-15T16:19:21.335Z,94.48
2023-11-15T16:21:48.118Z,94.91
2023-11-15T16:24:14.615Z,95.10
2023-11-15T16:26:41.208Z,95.72
2023-11-15T16:29:07.777Z,95.80
2023-11-15T16:31:34.364Z,95.67
2023-11-15T16:34:00.866Z,95.96
2023-11-15T16:36:28.447Z,95.45
2023-11-15T16:38:54.968Z,95.47
2023-11-15T16:41:22.170Z,95.51
2023-11-15T16:43:48.601Z,95.54
2023-11-15T16:46:15.209Z,95.60
2023-11-15T16:48:44.243Z,95.80
2023-11-15T16:51:11.566Z,96.12
2023-11-15T16:53:38.060Z,96.21
2023-11-15T16:56:04.861Z,95.76
2023-11-15T16:58:33.065Z,96.00
2023-11-15T17:00:59.541Z,96.20
2023-11-15T17:03:26.083Z,96.55
2023-11-15T17:05:52.858Z,96.65
2023-11-15T17:08:19.555Z,96.78
2023-11-15T17:10:46.549Z,96.87
2023-11-15T17:13:13.820Z,97.17
2023-11-15T17:15:40.244Z,97.54
2023-11-15T17:18:06.700Z,97.64
2023-11-15T17:20:33.278Z,97.77
2023-11-15T17:22:59.790Z,98.15
2023-11-15T17:25:27.153Z,97.96
2023-11-15T17:27:54.756Z,98.18
2023-11-15T17:30:21.730Z,98.63
2023-11-15T17:32:48.311Z,98.71
2023-11-15T17:35:14.887Z,99.26
2023-11-15T17:37:44.110Z,99.56
2023-11-15T17:40:12.255Z,100.00
2023-11-15T17:42:38.739Z,100.00
2023-11-15T17:45:07.862Z,100.00
2023-11-15T17:47:34.464Z,100.00
2023-11-15T17:50:05.010Z,100.00
2023-11-15T17:52:31.621Z,100.00
2023-11-15T17:54:58.064Z,100.00
2023-11-15T17:57:24.829Z,100.00
2023-11-15T17:59:51.251Z,100.00
2023-11-15T18:02:17.912Z,100.00
2023-11-15T18:04:44.342Z,100.00
2023-11-15T18:07:10.876Z,100.00
2023-11-15T18:09:40.428Z,100.00
2023-11-15T18:12:07.628Z,100.00
2023-11-15T18:14:34.392Z,100.00
2023-11-15T18:17:00.834Z,100.00
2023-11-15T18:19:28.401Z,100.00
2023-11-15T18:21:55.532Z,100.00
2023-11-15T18:24:24.211Z,100.00
2023-11-15T18:26:51.036Z,100.00
2023-11-15T18:29:18.122Z,100.00
2023-11-15T18:31:44.827Z,100.00
2023-11-15T18:34:12.416Z,100.00
2023-11-15T18:36:41.648Z,100.00
2023-11-15T18:39:18.426Z,100.00
2023-11-15T18:41:48.067Z,100.00
2023-11-15T18:44:17.024Z,100.00
2023-11-15T18:46:44.102Z,100.00
2023-11-15T18:49:10.595Z,100.00
2023-11-15T18:51:37.466Z,100.00
2023-11-15T18:54:04.631Z,100.00
2023-11-15T18:56:31.904Z,100.00
2023-11-15T18:59:01.385Z,100.00
2023-11-15T19:01:27.819Z,100.00
2023-11-15T19:03:54.652Z,100.00
2023-11-15T19:06:22.936Z,100.00
2023-11-15T19:08:49.760Z,100.00
2023-11-15T19:11:16.225Z,100.00
2023-11-15T19:13:43.798Z,100.00
2023-11-15T19:16:10.372Z,100.00
2023-11-15T19:18:37.062Z,100.00
2023-11-15T19:21:05.398Z,100.00
2023-11-15T19:23:31.978Z,100.00
2023-11-15T19:25:58.429Z,100.00
2023-11-15T19:28:25.315Z,100.00
2023-11-15T19:30:51.850Z,100.00
2023-11-15T19:33:20.687Z,100.00
2023-11-15T19:35:49.434Z,100.00
2023-11-15T19:38:15.878Z,100.00
2023-11-15T19:40:42.505Z,100.00
2023-11-15T19:43:10.583Z,100.00
2023-11-15T19:45:37.282Z,100.00
2023-11-15T19:48:04.377Z,100.00
2023-11-15T19:50:31.496Z,100.00
2023-11-15T19:52:58.000Z,100.00
2023-11-15T19:55:30.472Z,100.00
2023-11-15T19:57:58.834Z,100.00
2023-11-15T20:00:25.778Z,100.00
2023-11-15T20:02:53.550Z,100.00
2023-11-15T20:05:22.628Z,100.00
2023-11-15T20:07:49.072Z,100.00
2023-11-15T20:10:15.597Z,100.00
2023-11-15T20:12:44.194Z,100.00
2023-11-15T20:15:11.582Z,100.00
2023-11-15T20:17:38.337Z,100.00
2023-11-15T20:20:05.709Z,100.00
2023-11-15T20:22:42.022Z,100.00
2023-11-15T20:25:15.105Z,100.00
2023-11-15T20:27:41.545Z,100.00
2023-11-15T20:30:10.099Z,100.00
2023-11-15T20:32:36.615Z,100.00
2023-11-15T20:35:04.569Z,100.00
2023-11-15T20:37:31.755Z,100.00
2023-11-15T20:39:58.346Z,100.00
2023-11-15T20:42:25.105Z,100.00
2023-11-15T20:44:51.607Z,100.00
2023-11-15T20:47:20.111Z,100.00
2023-11-15T20:49:47.094Z,100.00
2023-11-15T20:52:14.611Z,100.00
2023-11-15T20:54:41.182Z,100.00
2023-11-15T20:57:08.903Z,100.00
2023-11-15T20:59:37.298Z,100.00
2023-11-15T21:02:04.502Z,100.00
2023-11-15T21:04:31.197Z,100.00
2023-11-15T21:06:59.763Z,100.00
2023-11-15T21:09:26.820Z,100.00
2023-11-15T21:11:56.193Z,100.00
2023-11-15T21:14:22.816Z,100.00
2023-11-15T21:16:49.352Z,100.00
2023-11-15T21:19:15.962Z,100.00
2023-11-15T21:21:45.961Z,100.00
2023-11-15T21:24:12.948Z,100.00
2023-11-15T21:26:41.205Z,100.00
2023-11-15T21:29:11.594Z,100.00
2023-11-15T21:31:40.730Z,100.00
2023-11-15T21:34:08.736Z,100.00
2023-11-15T21:36:37.740Z,100.00
2023-11-15T21:39:10.716Z,100.00
2023-11-15T21:41:37.449Z,100.00
2023-11-15T21:44:04.892Z,100.00
2023-11-15T21:46:31.456Z,100.00
2023-11-15T21:48:58.618Z,100.00
2023-11-15T21:51:25.632Z,100.00
2023-11-15T21:53:54.350Z,100.00
2023-11-15T21:56:21.898Z,100.00
2023-11-15T21:58:48.562Z,100.00
2023-11-15T22:01:15.730Z,100.00
2023-11-15T22:03:42.937Z,100.00
2023-11-15T22:06:09.891Z,100.00
2023-11-15T22:08:36.428Z,100.00
2023-11-15T22:11:04.623Z,100.00
2023-11-15T22:13:31.167Z,100.00
2023-11-15T22:15:58.344Z,100.00
2023-11-15T22:18:24.931Z,100.00
2023-11-15T22:20:53.245Z,100.00
2023-11-15T22:23:19.652Z,100.00
2023-11-15T22:25:46.063Z,100.00
2023-11-15T22:28:12.569Z,100.00
2023-11-15T22:30:39.084Z,100.00
2023-11-15T22:33:05.733Z,100.00
2023-11-15T22:35:34.744Z,100.00
2023-11-15T22:38:01.196Z,100.00
2023-11-15T22:40:27.592Z,100.00
2023-11-15T22:43:03.350Z,100.00
2023-11-15T22:45:31.368Z,100.00
2023-11-15T22:47:58.781Z,100.00
2023-11-15T22:50:25.529Z,100.00
2023-11-15T22:52:52.060Z,99.47
2023-11-15T22:55:18.989Z,98.74
2023-11-15T22:57:45.458Z,98.56
2023-11-15T23:00:20.850Z,97.87
2023-11-15T23:02:50.034Z,97.88
2023-11-15T23:05:16.764Z,98.22
2023-11-15T23:07:43.862Z,98.05
2023-11-15T23:10:10.315Z,97.57
2023-11-15T23:12:37.767Z,96.96
2023-11-15T23:15:04.550Z,96.71
2023-11-15T23:17:33.156Z,96.84
2023-11-15T23:19:59.663Z,96.77
2023-11-15T23:22:26.142Z,96.82
2023-11-15T23:24:52.802Z,96.68
2023-11-15T23:27:19.264Z,96.73
2023-11-15T23:29:45.677Z,96.33
2023-11-15T23:32:12.267Z,95.77
2023-11-15T23:34:38.758Z,95.42
2023-11-15T23:37:05.228Z,95.17
2023-11-15T23:39:31.873Z,95.45
2023-11-15T23:41:58.433Z,95.54
2023-11-15T23:44:24.940Z,95.66
2023-11-15T23:46:52.856Z,95.02
2023-11-15T23:49:19.620Z,94.46
2023-11-15T23:51:46.080Z,94.35
2023-11-15T23:54:12.774Z,94.45
2023-11-15T23:56:43.059Z,94.44
2023-11-15T23:59:09.833Z,95.04
